Terminal Aerodrome Forecast
Issued by NWS Goodland, KS

Home | Current Version | Previous Version | Text Only | Print | Product List | Glossary On
Versions: 1 2 3 4 5 6 7 8 9 10 11 12 13 14 15
711
FTUS43 KGLD 191720
TAFGLD
TAF
KGLD 191720Z 1918/2018 17013KT P6SM SCT250
     FM192100 18018G25KT P6SM SCT250
     FM200100 17018KT P6SM SCT250
     FM201400 18027G36KT P6SM SCT250=

USA.gov is the U.S. government's official web portal to all federal, state and local government web resources and services.